createdAt,value
2022-11-23T00:01:43.261Z,4.10
2022-11-23T00:04:13.191Z,3.58
2022-11-23T00:06:42.857Z,6.25
2022-11-23T00:09:13.386Z,5.00
2022-11-23T00:11:43.250Z,4.50
2022-11-23T00:14:12.449Z,4.30
2022-11-23T00:16:39.410Z,2.17
2022-11-23T00:19:06.345Z,4.88
2022-11-23T00:21:35.661Z,2.35
2022-11-23T00:24:02.789Z,2.45
2022-11-23T00:26:29.719Z,2.50
2022-11-23T00:28:59.135Z,4.55
2022-11-23T00:31:26.066Z,5.90
2022-11-23T00:33:57.680Z,5.47
2022-11-23T00:38:54.705Z,4.07
2022-11-23T00:41:30.163Z,3.38
2022-11-23T00:44:01.644Z,5.47
2022-11-23T00:46:29.008Z,2.17
2022-11-23T00:48:57.792Z,4.35
2022-11-23T00:51:31.837Z,3.35
2022-11-23T00:53:59.784Z,8.90
2022-11-23T00:56:30.576Z,3.63
2022-11-23T00:59:02.062Z,2.60
2022-11-23T01:01:35.517Z,2.75
2022-11-23T01:04:05.414Z,2.92
2022-11-23T01:06:36.630Z,3.75
2022-11-23T01:09:18.447Z,3.78
2022-11-23T01:11:45.907Z,4.55
2022-11-23T01:14:13.291Z,5.47
2022-11-23T01:16:41.723Z,4.15
2022-11-23T01:19:13.892Z,4.43
2022-11-23T01:21:43.664Z,2.90
2022-11-23T01:24:15.841Z,3.28
2022-11-23T01:26:44.166Z,3.60
2022-11-23T01:29:16.192Z,3.47
2022-11-23T01:31:46.538Z,4.53
2022-11-23T01:34:15.354Z,5.03
2022-11-23T01:36:43.344Z,4.78
2022-11-23T01:39:11.967Z,3.85
2022-11-23T01:41:42.531Z,5.30
2022-11-23T01:44:36.033Z,4.40
2022-11-23T01:47:06.980Z,3.92
2022-11-23T01:49:45.668Z,4.60
2022-11-23T01:52:21.652Z,6.45
2022-11-23T01:55:02.678Z,3.80
2022-11-23T01:57:39.782Z,3.60
2022-11-23T02:00:08.292Z,3.35
2022-11-23T02:02:38.700Z,3.10
2022-11-23T02:05:06.569Z,4.63
2022-11-23T02:07:38.114Z,3.85
2022-11-23T02:12:32.107Z,2.58
2022-11-23T02:15:01.486Z,3.33
2022-11-23T02:17:28.396Z,4.13
2022-11-23T02:20:04.424Z,3.17
2022-11-23T02:23:04.359Z,4.05
2022-11-23T02:25:46.508Z,3.88
2022-11-23T02:28:25.131Z,4.68
2022-11-23T02:30:54.779Z,2.33
2022-11-23T02:33:25.376Z,3.10
2022-11-23T02:36:02.201Z,4.28
2022-11-23T02:38:38.195Z,4.68
2022-11-23T02:41:05.238Z,2.80
2022-11-23T02:43:34.616Z,3.55
2022-11-23T02:46:07.008Z,4.45
2022-11-23T02:48:35.504Z,4.68
2022-11-23T02:51:04.478Z,2.78
2022-11-23T02:53:36.769Z,3.00
2022-11-23T02:56:03.751Z,3.58
2022-11-23T02:58:30.671Z,2.65
2022-11-23T03:00:59.685Z,3.30
2022-11-23T03:03:27.051Z,4.38
2022-11-23T03:05:53.946Z,3.88
2022-11-23T03:08:23.386Z,2.72
2022-11-23T03:10:50.224Z,3.00
2022-11-23T03:13:19.995Z,4.05
2022-11-23T03:15:46.919Z,3.80
2022-11-23T03:18:13.936Z,6.10
2022-11-23T03:20:43.013Z,3.40
2022-11-23T03:23:09.958Z,2.72
2022-11-23T03:25:36.782Z,3.83
2022-11-23T03:28:03.795Z,3.20
2022-11-23T03:30:33.799Z,3.47
2022-11-23T03:33:00.666Z,2.97
2022-11-23T03:35:30.478Z,4.75
2022-11-23T03:38:02.571Z,3.42
2022-11-23T03:40:34.551Z,2.58
2022-11-23T03:43:01.615Z,1.83
2022-11-23T03:45:31.628Z,2.78
2022-11-23T03:47:58.543Z,3.38
2022-11-23T03:50:29.744Z,2.15
2022-11-23T03:52:57.420Z,1.95
2022-11-23T03:55:27.190Z,2.53
2022-11-23T03:57:59.699Z,1.92
2022-11-23T04:00:28.238Z,2.30
2022-11-23T04:02:57.656Z,3.97
2022-11-23T04:05:27.893Z,1.92
2022-11-23T04:07:55.036Z,2.97
2022-11-23T04:10:22.273Z,3.63
2022-11-23T04:12:53.314Z,3.10
2022-11-23T04:15:20.624Z,1.60
2022-11-23T04:17:47.870Z,3.05
2022-11-23T04:20:15.075Z,3.65
2022-11-23T04:22:46.704Z,3.78
2022-11-23T04:27:40.360Z,4.25
2022-11-23T04:30:10.422Z,2.38
2022-11-23T04:32:39.853Z,2.33
2022-11-23T04:35:09.394Z,2.67
2022-11-23T04:37:38.509Z,3.58
2022-11-23T04:40:06.618Z,3.13
2022-11-23T04:42:36.423Z,2.08
2022-11-23T04:45:08.383Z,2.95
2022-11-23T04:47:35.344Z,2.08
2022-11-23T04:50:02.251Z,2.75
2022-11-23T04:52:29.092Z,2.60
2022-11-23T04:54:55.974Z,2.05
2022-11-23T04:57:22.872Z,3.17
2022-11-23T04:59:52.607Z,2.30
2022-11-23T05:02:19.524Z,2.72
2022-11-23T05:04:46.375Z,2.70
2022-11-23T05:07:16.417Z,2.10
2022-11-23T05:09:44.275Z,3.35
2022-11-23T05:12:15.782Z,2.05
2022-11-23T05:14:43.229Z,4.70
2022-11-23T05:17:10.122Z,2.65
2022-11-23T05:19:39.264Z,2.85
2022-11-23T05:22:06.147Z,4.70
2022-11-23T05:24:33.004Z,3.83
2022-11-23T05:26:59.888Z,1.75
2022-11-23T05:29:29.334Z,6.15
2022-11-23T05:31:56.402Z,2.70
2022-11-23T05:34:25.438Z,3.95
2022-11-23T05:36:55.419Z,3.55
2022-11-23T05:39:22.939Z,3.97
2022-11-23T05:41:49.825Z,2.30
2022-11-23T05:44:16.687Z,4.45
2022-11-23T05:46:52.559Z,2.33
2022-11-23T05:49:21.605Z,3.88
2022-11-23T05:51:50.582Z,2.30
2022-11-23T05:54:17.531Z,3.80
2022-11-23T05:56:44.469Z,4.55
2022-11-23T05:59:14.317Z,5.25
2022-11-23T06:01:41.275Z,3.33
2022-11-23T06:04:10.438Z,4.28
2022-11-23T06:06:38.184Z,3.60
2022-11-23T06:09:07.329Z,2.58
2022-11-23T06:11:35.289Z,2.45
2022-11-23T06:14:02.175Z,2.85
2022-11-23T06:16:29.164Z,3.53
2022-11-23T06:18:58.073Z,4.22
2022-11-23T06:21:25.244Z,6.03
2022-11-23T06:23:52.400Z,3.67
2022-11-23T06:26:21.830Z,3.75
2022-11-23T06:28:48.748Z,2.72
2022-11-23T06:31:15.590Z,4.13
2022-11-23T06:33:45.488Z,4.07
2022-11-23T06:36:12.603Z,4.38
2022-11-23T06:38:41.716Z,6.70
2022-11-23T06:41:08.752Z,3.33
2022-11-23T06:43:38.130Z,4.57
2022-11-23T06:46:09.041Z,6.55
2022-11-23T06:48:35.869Z,8.45
2022-11-23T06:51:02.859Z,18.35
2022-11-23T06:53:34.139Z,13.23
2022-11-23T06:56:01.350Z,13.15
2022-11-23T06:58:28.884Z,11.73
2022-11-23T07:01:01.965Z,16.27
2022-11-23T07:03:29.471Z,11.02
2022-11-23T07:06:04.017Z,9.07
2022-11-23T07:08:35.477Z,5.32
2022-11-23T07:11:05.640Z,6.07
2022-11-23T07:13:33.501Z,4.97
2022-11-23T07:16:00.829Z,8.02
2022-11-23T07:18:29.947Z,6.75
2022-11-23T07:20:59.966Z,6.15
2022-11-23T07:23:29.985Z,6.90
2022-11-23T07:26:01.450Z,6.72
2022-11-23T07:28:28.352Z,5.88
2022-11-23T07:30:59.987Z,6.45
2022-11-23T07:35:53.785Z,8.05
2022-11-23T07:38:23.179Z,7.85
2022-11-23T07:40:51.425Z,8.55
2022-11-23T07:43:20.663Z,8.85
2022-11-23T07:45:50.482Z,8.57
2022-11-23T07:48:18.245Z,9.15
2022-11-23T07:50:45.204Z,7.05
2022-11-23T07:53:12.108Z,8.68
2022-11-23T07:55:41.202Z,10.40
2022-11-23T07:58:11.717Z,7.10
2022-11-23T08:00:43.722Z,8.80
2022-11-23T08:03:27.904Z,7.90
2022-11-23T08:05:58.651Z,10.30
2022-11-23T08:08:25.565Z,5.95
2022-11-23T08:10:54.244Z,10.98
2022-11-23T08:13:22.992Z,11.80
2022-11-23T08:15:55.343Z,11.32
2022-11-23T08:18:25.121Z,7.10
2022-11-23T08:20:54.770Z,7.82
2022-11-23T08:23:21.804Z,8.60
2022-11-23T08:25:51.015Z,11.07
2022-11-23T08:28:20.770Z,11.90
2022-11-23T08:30:48.547Z,8.60
2022-11-23T08:33:18.237Z,5.80
2022-11-23T08:35:45.235Z,5.82
2022-11-23T08:38:15.144Z,7.75
2022-11-23T08:40:46.607Z,6.25
2022-11-23T08:43:13.473Z,5.70
2022-11-23T08:45:42.396Z,11.30
2022-11-23T08:48:10.007Z,6.80
2022-11-23T08:50:39.442Z,7.78
2022-11-23T08:53:09.120Z,7.90
2022-11-23T08:55:35.969Z,6.03
2022-11-23T08:58:07.872Z,6.88
2022-11-23T09:00:38.948Z,7.20
2022-11-23T09:03:07.860Z,5.53
2022-11-23T09:05:37.679Z,7.03
2022-11-23T09:08:08.866Z,5.97
2022-11-23T09:10:38.844Z,7.60
2022-11-23T09:13:08.350Z,6.00
2022-11-23T09:15:35.552Z,5.63
2022-11-23T09:18:02.462Z,4.45
2022-11-23T09:20:30.314Z,15.68
2022-11-23T09:22:57.210Z,15.77
2022-11-23T09:25:24.394Z,15.00
2022-11-23T09:27:59.551Z,11.00
2022-11-23T09:30:30.279Z,14.45
2022-11-23T09:32:57.997Z,15.67
2022-11-23T09:35:29.976Z,13.13
2022-11-23T09:37:58.482Z,11.85
2022-11-23T09:40:33.265Z,13.60
2022-11-23T09:43:02.803Z,11.57
2022-11-23T09:45:34.939Z,11.98
2022-11-23T09:48:49.127Z,9.10
2022-11-23T09:51:17.930Z,9.32
2022-11-23T09:53:56.834Z,10.63
2022-11-23T09:56:32.991Z,8.80
2022-11-23T09:59:19.409Z,10.60
2022-11-23T10:01:46.348Z,9.23
2022-11-23T10:04:20.031Z,9.55
2022-11-23T10:06:58.096Z,14.57
2022-11-23T10:10:35.990Z,12.07
2022-11-23T10:13:34.721Z,10.95
2022-11-23T10:16:34.030Z,9.43
2022-11-23T10:19:38.709Z,10.73
2022-11-23T10:22:31.426Z,8.55
2022-11-23T10:25:03.440Z,9.23
2022-11-23T10:27:33.797Z,8.35
2022-11-23T10:30:03.307Z,8.32
2022-11-23T10:32:46.784Z,9.82
2022-11-23T10:35:33.461Z,4.45
2022-11-23T10:38:29.595Z,3.83
2022-11-23T10:41:12.861Z,2.53
2022-11-23T10:43:48.608Z,4.22
2022-11-23T10:46:29.192Z,7.18
2022-11-23T10:49:09.657Z,2.25
2022-11-23T10:51:40.201Z,2.97
2022-11-23T10:54:37.540Z,2.90
2022-11-23T10:57:34.808Z,1.58
2022-11-23T11:00:16.388Z,2.25
2022-11-23T11:02:49.828Z,1.20
2022-11-23T11:08:35.151Z,3.78
2022-11-23T11:11:11.721Z,3.85
2022-11-23T11:13:47.023Z,2.22
2022-11-23T11:16:33.526Z,2.08
2022-11-23T11:19:26.631Z,2.17
2022-11-23T11:21:53.892Z,2.78
2022-11-23T11:24:47.060Z,1.50
2022-11-23T11:27:23.587Z,1.60
2022-11-23T11:30:07.504Z,1.38
2022-11-23T11:32:55.971Z,1.50
2022-11-23T11:35:33.020Z,2.25
2022-11-23T11:38:29.784Z,1.98
2022-11-23T11:41:01.375Z,2.80
2022-11-23T11:46:30.726Z,2.33
2022-11-23T11:49:06.861Z,2.08
2022-11-23T11:52:19.954Z,2.83
2022-11-23T11:55:23.074Z,3.50
2022-11-23T11:58:04.461Z,3.15
2022-11-23T12:00:40.856Z,3.30
2022-11-23T12:03:42.057Z,2.80
2022-11-23T12:06:27.748Z,2.65
2022-11-23T12:09:06.673Z,2.15
2022-11-23T12:11:34.907Z,3.67
2022-11-23T12:14:08.790Z,1.63
2022-11-23T12:17:37.611Z,1.90
2022-11-23T12:20:29.667Z,1.83
2022-11-23T12:23:22.079Z,4.20
2022-11-23T12:26:00.482Z,2.22
2022-11-23T12:29:13.348Z,3.60
2022-11-23T12:31:47.093Z,4.00
2022-11-23T12:34:41.177Z,4.70
2022-11-23T12:37:11.490Z,6.93
2022-11-23T12:40:16.082Z,4.60
2022-11-23T12:42:55.916Z,2.50
2022-11-23T12:45:51.013Z,3.67
2022-11-23T12:48:46.133Z,5.47
2022-11-23T12:51:41.915Z,6.35
2022-11-23T12:54:45.132Z,2.05
2022-11-23T12:57:36.961Z,2.38
2022-11-23T13:02:58.705Z,1.30
2022-11-23T13:06:06.340Z,3.25
2022-11-23T13:09:11.332Z,1.73
2022-11-23T13:12:23.625Z,3.22
2022-11-23T13:15:10.788Z,3.17
2022-11-23T13:18:01.941Z,2.50
2022-11-23T13:21:04.137Z,2.05
2022-11-23T13:23:38.685Z,2.05
2022-11-23T13:26:28.185Z,5.35
2022-11-23T13:28:58.413Z,3.63
2022-11-23T13:31:31.621Z,3.33
2022-11-23T13:34:07.550Z,2.80
2022-11-23T13:37:11.016Z,3.85
2022-11-23T13:39:58.785Z,3.20
2022-11-23T13:42:27.725Z,2.55
2022-11-23T13:45:39.215Z,3.00
2022-11-23T13:48:09.197Z,2.85
2022-11-23T13:50:50.907Z,2.53
2022-11-23T13:56:15.567Z,2.08
2022-11-23T13:58:54.672Z,5.10
2022-11-23T14:02:08.721Z,2.90
2022-11-23T14:04:47.258Z,3.55
2022-11-23T14:07:43.151Z,3.17
2022-11-23T14:10:24.314Z,3.70
2022-11-23T14:13:02.027Z,4.25
2022-11-23T14:15:42.621Z,5.07
2022-11-23T14:18:31.405Z,2.38
2022-11-23T14:21:15.070Z,4.82
2022-11-23T14:24:05.378Z,3.33
2022-11-23T14:26:46.144Z,4.03
2022-11-23T14:29:58.085Z,4.30
2022-11-23T14:32:58.984Z,1.65
2022-11-23T14:35:34.092Z,2.97
2022-11-23T14:38:50.531Z,3.42
2022-11-23T14:41:23.969Z,2.90
2022-11-23T14:43:54.388Z,4.90
2022-11-23T14:46:25.880Z,5.32
2022-11-23T14:51:34.013Z,7.68
2022-11-23T14:54:08.609Z,4.72
2022-11-23T14:56:45.387Z,4.75
2022-11-23T14:59:24.700Z,3.60
2022-11-23T15:01:57.449Z,4.47
2022-11-23T15:04:29.268Z,10.18
2022-11-23T15:07:21.201Z,4.45
2022-11-23T15:10:18.936Z,6.07
2022-11-23T15:12:53.357Z,4.85
2022-11-23T15:15:37.995Z,5.43
2022-11-23T15:18:05.170Z,6.35
2022-11-23T15:20:34.990Z,4.55
2022-11-23T15:23:07.632Z,5.25
2022-11-23T15:25:37.325Z,4.45
2022-11-23T15:28:11.973Z,4.15
2022-11-23T15:30:41.349Z,5.10
2022-11-23T15:33:11.701Z,10.20
2022-11-23T15:35:42.427Z,6.07
2022-11-23T15:38:19.045Z,4.60
2022-11-23T15:40:50.500Z,6.93
2022-11-23T15:43:20.142Z,6.45
2022-11-23T15:45:50.117Z,5.45
2022-11-23T15:48:33.809Z,5.93
2022-11-23T15:51:06.837Z,3.90
2022-11-23T15:53:57.869Z,4.55
2022-11-23T15:56:37.375Z,2.63
2022-11-23T15:59:22.296Z,2.90
2022-11-23T16:01:52.290Z,3.35
2022-11-23T16:04:39.791Z,4.55
2022-11-23T16:07:24.944Z,4.90
2022-11-23T16:10:06.504Z,5.85
2022-11-23T16:12:47.610Z,3.40
2022-11-23T16:15:40.855Z,6.88
2022-11-23T16:18:13.513Z,6.53
2022-11-23T16:21:06.772Z,5.15
2022-11-23T16:23:54.082Z,4.40
2022-11-23T16:26:34.340Z,7.63
2022-11-23T16:29:02.417Z,6.28
2022-11-23T16:31:51.166Z,6.22
2022-11-23T16:34:19.646Z,4.18
2022-11-23T16:36:46.903Z,4.32
2022-11-23T16:39:13.883Z,5.07
2022-11-23T16:41:43.904Z,6.10
2022-11-23T16:44:13.346Z,6.80
2022-11-23T16:46:43.449Z,5.80
2022-11-23T16:49:20.224Z,7.25
2022-11-23T16:51:56.156Z,6.13
2022-11-23T16:54:25.353Z,4.22
2022-11-23T16:57:01.288Z,4.78
2022-11-23T16:59:28.245Z,4.60
2022-11-23T17:01:57.540Z,4.68
2022-11-23T17:04:25.461Z,3.67
2022-11-23T17:06:52.411Z,6.53
2022-11-23T17:09:19.325Z,5.82
2022-11-23T17:11:52.066Z,5.95
2022-11-23T17:14:29.590Z,6.65
2022-11-23T17:17:02.460Z,11.43
2022-11-23T17:19:32.629Z,6.25
2022-11-23T17:22:02.779Z,7.70
2022-11-23T17:24:29.902Z,11.38
2022-11-23T17:26:59.147Z,9.73
2022-11-23T17:29:25.992Z,7.10
2022-11-23T17:31:52.898Z,5.95
2022-11-23T17:34:22.829Z,7.00
2022-11-23T17:36:51.621Z,6.85
2022-11-23T17:39:27.924Z,4.88
2022-11-23T17:41:57.670Z,5.28
2022-11-23T17:44:27.091Z,4.25
2022-11-23T17:46:58.016Z,4.78
2022-11-23T17:49:28.395Z,5.90
2022-11-23T17:52:01.003Z,6.03
2022-11-23T17:54:27.973Z,8.98
2022-11-23T17:56:55.228Z,7.20
2022-11-23T17:59:32.884Z,7.05
2022-11-23T18:02:11.355Z,7.95
2022-11-23T18:04:40.543Z,9.23
2022-11-23T18:07:10.084Z,10.50
2022-11-23T18:09:39.587Z,10.10
2022-11-23T18:12:09.249Z,7.20
2022-11-23T18:14:36.379Z,8.82
2022-11-23T18:17:03.597Z,16.90
2022-11-23T18:19:32.938Z,10.05
2022-11-23T18:22:00.092Z,8.85
2022-11-23T18:24:27.043Z,6.85
2022-11-23T18:26:53.965Z,7.15
2022-11-23T18:29:20.956Z,8.75
2022-11-23T18:31:48.007Z,7.82
2022-11-23T18:34:17.031Z,7.15
2022-11-23T18:36:48.418Z,5.82
2022-11-23T18:39:21.461Z,4.40
2022-11-23T18:41:48.406Z,5.47
2022-11-23T18:44:15.428Z,5.35
2022-11-23T18:46:45.843Z,4.47
2022-11-23T18:49:12.900Z,4.75
2022-11-23T18:51:39.884Z,4.75
2022-11-23T18:54:06.740Z,4.65
2022-11-23T18:56:33.658Z,3.90
2022-11-23T18:59:00.559Z,3.33
2022-11-23T19:01:30.013Z,3.13
2022-11-23T19:03:58.271Z,5.03
2022-11-23T19:06:29.791Z,5.38
2022-11-23T19:09:01.760Z,12.48
2022-11-23T19:11:30.846Z,7.85
2022-11-23T19:14:01.729Z,4.50
2022-11-23T19:16:33.239Z,4.70
2022-11-23T19:21:36.408Z,4.53
2022-11-23T19:24:07.230Z,4.78
2022-11-23T19:26:34.142Z,5.70
2022-11-23T19:29:01.222Z,9.80
2022-11-23T19:31:30.682Z,6.63
2022-11-23T19:34:05.801Z,4.57
2022-11-23T19:36:36.574Z,6.30
2022-11-23T19:39:06.527Z,4.78
2022-11-23T19:41:33.572Z,5.78
2022-11-23T19:44:04.362Z,3.70
2022-11-23T19:46:31.600Z,4.18
2022-11-23T19:48:59.252Z,3.95
2022-11-23T19:51:27.930Z,4.13
2022-11-23T19:53:57.572Z,2.30
2022-11-23T19:56:28.816Z,2.65
2022-11-23T19:58:59.466Z,4.35
2022-11-23T20:01:33.667Z,4.00
2022-11-23T20:04:09.328Z,4.65
2022-11-23T20:06:42.529Z,4.05
2022-11-23T20:09:22.571Z,3.17
2022-11-23T20:11:52.333Z,3.50
2022-11-23T20:14:25.367Z,3.00
2022-11-23T20:16:52.338Z,4.05
2022-11-23T20:19:19.281Z,3.00
2022-11-23T20:21:49.113Z,2.53
2022-11-23T20:24:18.341Z,4.00
2022-11-23T20:26:45.217Z,3.35
2022-11-23T20:29:15.144Z,2.63
2022-11-23T20:31:44.911Z,3.20
2022-11-23T20:34:19.811Z,1.90
2022-11-23T20:36:50.481Z,3.03
2022-11-23T20:39:19.968Z,2.50
2022-11-23T20:41:49.343Z,2.83
2022-11-23T20:44:16.287Z,1.95
2022-11-23T20:47:01.726Z,1.88
2022-11-23T20:49:30.320Z,3.42
2022-11-23T20:51:58.281Z,4.00
2022-11-23T20:54:27.504Z,3.17
2022-11-23T20:56:59.968Z,4.00
2022-11-23T20:59:27.337Z,3.03
2022-11-23T21:01:54.333Z,3.80
2022-11-23T21:04:24.338Z,3.97
2022-11-23T21:06:54.558Z,4.88
2022-11-23T21:09:24.034Z,6.45
2022-11-23T21:12:09.561Z,4.65
2022-11-23T21:14:39.530Z,6.88
2022-11-23T21:17:06.520Z,3.67
2022-11-23T21:19:40.792Z,4.38
2022-11-23T21:22:13.835Z,4.20
2022-11-23T21:24:43.998Z,4.70
2022-11-23T21:27:14.578Z,3.60
2022-11-23T21:29:44.807Z,5.30
2022-11-23T21:32:14.664Z,2.08
2022-11-23T21:34:44.125Z,4.28
2022-11-23T21:37:12.659Z,2.58
2022-11-23T21:39:41.462Z,4.38
2022-11-23T21:42:08.863Z,5.15
2022-11-23T21:44:35.978Z,2.05
2022-11-23T21:47:05.373Z,3.20
2022-11-23T21:49:33.692Z,5.07
2022-11-23T21:52:00.675Z,3.03
2022-11-23T21:54:27.885Z,5.70
2022-11-23T21:56:58.926Z,8.23
2022-11-23T21:59:25.899Z,4.85
2022-11-23T22:01:58.751Z,4.55
2022-11-23T22:04:26.218Z,3.65
2022-11-23T22:06:56.141Z,5.85
2022-11-23T22:09:23.025Z,4.75
2022-11-23T22:11:54.440Z,6.72
2022-11-23T22:14:21.997Z,2.90
2022-11-23T22:16:50.109Z,4.60
2022-11-23T22:19:18.272Z,2.88
2022-11-23T22:21:46.704Z,2.67
2022-11-23T22:24:19.682Z,2.72
2022-11-23T22:26:49.443Z,2.65
2022-11-23T22:29:16.555Z,3.38
2022-11-23T22:31:45.940Z,4.50
2022-11-23T22:34:14.014Z,5.45
2022-11-23T22:36:43.753Z,2.38
2022-11-23T22:39:11.187Z,3.60
2022-11-23T22:41:40.975Z,1.58
2022-11-23T22:44:12.674Z,2.75
2022-11-23T22:46:39.948Z,2.50
2022-11-23T22:49:09.099Z,4.15
2022-11-23T22:51:38.571Z,2.53
2022-11-23T22:54:05.472Z,3.65
2022-11-23T22:56:32.822Z,3.78
2022-11-23T22:59:00.149Z,1.63
2022-11-23T23:01:30.143Z,2.97
2022-11-23T23:04:01.270Z,2.20
2022-11-23T23:06:36.212Z,1.65
2022-11-23T23:09:07.045Z,2.10
2022-11-23T23:11:34.980Z,2.63
2022-11-23T23:14:04.588Z,1.52
2022-11-23T23:16:31.619Z,4.13
2022-11-23T23:18:59.399Z,2.00
2022-11-23T23:21:29.959Z,3.53
2022-11-23T23:24:00.026Z,6.65
2022-11-23T23:26:28.575Z,2.17
2022-11-23T23:28:58.277Z,2.60
2022-11-23T23:31:28.122Z,3.28
2022-11-23T23:33:55.243Z,4.50
2022-11-23T23:36:23.844Z,2.55
2022-11-23T23:38:51.269Z,3.72
2022-11-23T23:41:24.209Z,2.00
2022-11-23T23:43:55.604Z,1.98
2022-11-23T23:46:22.880Z,2.03
2022-11-23T23:48:49.811Z,4.10
2022-11-23T23:51:20.257Z,2.35
2022-11-23T23:53:50.877Z,2.70
2022-11-23T23:56:27.244Z,2.80
2022-11-23T23:58:59.100Z,1.75
